sensor_id;sensor_type;location;lat;lon;timestamp;temperature;humidity
43183;DHT22;28802;38.578;-0.066;2023-03-14T00:02:10;21.40;99.90
43183;DHT22;28802;38.578;-0.066;2023-03-14T00:04:36;21.10;99.90
43183;DHT22;28802;38.578;-0.066;2023-03-14T00:07:03;21.20;99.90
43183;DHT22;28802;38.578;-0.066;2023-03-14T00:09:29;21.30;99.90
43183;DHT22;28802;38.578;-0.066;2023-03-14T00:11:55;21.00;99.90
43183;DHT22;28802;38.578;-0.066;2023-03-14T00:14:21;21.10;99.90
43183;DHT22;28802;38.578;-0.066;2023-03-14T00:16:47;20.90;99.90
43183;DHT22;28802;38.578;-0.066;2023-03-14T00:19:13;20.90;99.90
43183;DHT22;28802;38.578;-0.066;2023-03-14T00:21:39;20.70;99.90
43183;DHT22;28802;38.578;-0.066;2023-03-14T00:24:06;20.60;99.90
43183;DHT22;28802;38.578;-0.066;2023-03-14T00:26:32;20.50;99.90
43183;DHT22;28802;38.578;-0.066;2023-03-14T00:28:58;20.30;99.90
43183;DHT22;28802;38.578;-0.066;2023-03-14T00:31:24;20.20;99.90
43183;DHT22;28802;38.578;-0.066;2023-03-14T00:33:51;20.20;99.90
43183;DHT22;28802;38.578;-0.066;2023-03-14T00:36:18;20.10;99.90
43183;DHT22;28802;38.578;-0.066;2023-03-14T00:38:48;19.90;99.90
43183;DHT22;28802;38.578;-0.066;2023-03-14T00:41:20;19.80;99.90
43183;DHT22;28802;38.578;-0.066;2023-03-14T00:43:48;19.80;99.90
43183;DHT22;28802;38.578;-0.066;2023-03-14T00:46:14;19.80;99.90
43183;DHT22;28802;38.578;-0.066;2023-03-14T00:48:44;20.00;99.90
43183;DHT22;28802;38.578;-0.066;2023-03-14T00:51:11;20.00;99.90
43183;DHT22;28802;38.578;-0.066;2023-03-14T00:53:42;20.00;99.90
43183;DHT22;28802;38.578;-0.066;2023-03-14T00:56:11;20.10;99.90
43183;DHT22;28802;38.578;-0.066;2023-03-14T00:58:37;20.10;99.90
43183;DHT22;28802;38.578;-0.066;2023-03-14T01:01:14;20.00;99.90
43183;DHT22;28802;38.578;-0.066;2023-03-14T01:03:40;20.10;99.90
43183;DHT22;28802;38.578;-0.066;2023-03-14T01:06:15;20.00;99.90
43183;DHT22;28802;38.578;-0.066;2023-03-14T01:08:42;19.90;99.90
43183;DHT22;28802;38.578;-0.066;2023-03-14T01:11:11;19.90;99.90
43183;DHT22;28802;38.578;-0.066;2023-03-14T01:13:38;20.00;99.90
43183;DHT22;28802;38.578;-0.066;2023-03-14T01:16:06;20.00;99.90
43183;DHT22;28802;38.578;-0.066;2023-03-14T01:18:37;19.80;99.90
43183;DHT22;28802;38.578;-0.066;2023-03-14T01:21:09;19.70;99.90
43183;DHT22;28802;38.578;-0.066;2023-03-14T01:23:35;19.70;99.90
43183;DHT22;28802;38.578;-0.066;2023-03-14T01:26:01;19.70;99.90
43183;DHT22;28802;38.578;-0.066;2023-03-14T01:28:27;19.70;99.90
43183;DHT22;28802;38.578;-0.066;2023-03-14T01:30:53;19.60;99.90
43183;DHT22;28802;38.578;-0.066;2023-03-14T01:33:19;19.60;99.90
43183;DHT22;28802;38.578;-0.066;2023-03-14T01:35:45;19.50;99.90
43183;DHT22;28802;38.578;-0.066;2023-03-14T01:38:11;19.50;99.90
43183;DHT22;28802;38.578;-0.066;2023-03-14T01:40:44;19.40;99.90
43183;DHT22;28802;38.578;-0.066;2023-03-14T01:43:16;19.30;99.90
43183;DHT22;28802;38.578;-0.066;2023-03-14T01:46:35;19.20;99.90
43183;DHT22;28802;38.578;-0.066;2023-03-14T01:49:28;19.20;99.90
43183;DHT22;28802;38.578;-0.066;2023-03-14T01:52:09;19.20;99.90
43183;DHT22;28802;38.578;-0.066;2023-03-14T01:54:44;19.30;99.90
43183;DHT22;28802;38.578;-0.066;2023-03-14T01:57:46;19.20;99.90
43183;DHT22;28802;38.578;-0.066;2023-03-14T02:00:08;19.10;99.90
43183;DHT22;28802;38.578;-0.066;2023-03-14T02:02:46;19.10;99.90
43183;DHT22;28802;38.578;-0.066;2023-03-14T02:05:17;19.10;99.90
43183;DHT22;28802;38.578;-0.066;2023-03-14T02:07:54;19.20;99.90
43183;DHT22;28802;38.578;-0.066;2023-03-14T02:10:38;19.10;99.90
43183;DHT22;28802;38.578;-0.066;2023-03-14T02:13:05;19.10;99.90
43183;DHT22;28802;38.578;-0.066;2023-03-14T02:16:00;19.00;99.90
43183;DHT22;28802;38.578;-0.066;2023-03-14T02:18:45;19.00;99.90
43183;DHT22;28802;38.578;-0.066;2023-03-14T02:24:27;18.90;99.90
43183;DHT22;28802;38.578;-0.066;2023-03-14T02:27:08;18.90;99.90
43183;DHT22;28802;38.578;-0.066;2023-03-14T02:29:45;18.80;99.90
43183;DHT22;28802;38.578;-0.066;2023-03-14T02:32:12;18.80;99.90
43183;DHT22;28802;38.578;-0.066;2023-03-14T02:34:40;18.90;99.90
43183;DHT22;28802;38.578;-0.066;2023-03-14T02:37:06;18.80;99.90
43183;DHT22;28802;38.578;-0.066;2023-03-14T02:39:39;18.80;99.90
43183;DHT22;28802;38.578;-0.066;2023-03-14T02:42:06;18.80;99.90
43183;DHT22;28802;38.578;-0.066;2023-03-14T02:44:32;18.70;99.90
43183;DHT22;28802;38.578;-0.066;2023-03-14T02:46:59;18.70;99.90
43183;DHT22;28802;38.578;-0.066;2023-03-14T02:49:27;18.50;99.90
43183;DHT22;28802;38.578;-0.066;2023-03-14T02:51:56;18.50;99.90
43183;DHT22;28802;38.578;-0.066;2023-03-14T02:54:22;18.40;99.90
43183;DHT22;28802;38.578;-0.066;2023-03-14T02:56:49;18.40;99.90
43183;DHT22;28802;38.578;-0.066;2023-03-14T02:59:15;18.30;99.90
43183;DHT22;28802;38.578;-0.066;2023-03-14T03:01:45;18.30;99.90
43183;DHT22;28802;38.578;-0.066;2023-03-14T03:04:11;18.40;99.90
43183;DHT22;28802;38.578;-0.066;2023-03-14T03:06:37;18.40;99.90
43183;DHT22;28802;38.578;-0.066;2023-03-14T03:09:03;18.50;99.90
43183;DHT22;28802;38.578;-0.066;2023-03-14T03:11:29;18.30;99.90
43183;DHT22;28802;38.578;-0.066;2023-03-14T03:13:55;18.20;99.90
43183;DHT22;28802;38.578;-0.066;2023-03-14T03:16:21;18.00;99.90
43183;DHT22;28802;38.578;-0.066;2023-03-14T03:18:47;17.90;99.90
43183;DHT22;28802;38.578;-0.066;2023-03-14T03:21:12;17.80;99.90
43183;DHT22;28802;38.578;-0.066;2023-03-14T03:23:38;17.70;99.90
43183;DHT22;28802;38.578;-0.066;2023-03-14T03:26:05;17.70;99.90
43183;DHT22;28802;38.578;-0.066;2023-03-14T03:28:31;17.70;99.90
43183;DHT22;28802;38.578;-0.066;2023-03-14T03:30:58;17.80;99.90
43183;DHT22;28802;38.578;-0.066;2023-03-14T03:33:24;17.90;99.90
43183;DHT22;28802;38.578;-0.066;2023-03-14T03:35:50;18.00;99.90
43183;DHT22;28802;38.578;-0.066;2023-03-14T03:38:27;17.90;99.90
43183;DHT22;28802;38.578;-0.066;2023-03-14T03:40:54;17.80;99.90
43183;DHT22;28802;38.578;-0.066;2023-03-14T03:43:23;17.80;99.90
43183;DHT22;28802;38.578;-0.066;2023-03-14T03:45:49;17.70;99.90
43183;DHT22;28802;38.578;-0.066;2023-03-14T03:48:15;17.70;99.90
43183;DHT22;28802;38.578;-0.066;2023-03-14T03:50:45;17.70;99.90
43183;DHT22;28802;38.578;-0.066;2023-03-14T03:53:13;17.70;99.90
43183;DHT22;28802;38.578;-0.066;2023-03-14T03:55:41;17.60;99.90
43183;DHT22;28802;38.578;-0.066;2023-03-14T03:58:08;17.60;99.90
43183;DHT22;28802;38.578;-0.066;2023-03-14T04:00:34;17.60;99.90
43183;DHT22;28802;38.578;-0.066;2023-03-14T04:03:00;17.60;99.90
43183;DHT22;28802;38.578;-0.066;2023-03-14T04:05:26;17.50;99.90
43183;DHT22;28802;38.578;-0.066;2023-03-14T04:07:58;17.40;99.90
43183;DHT22;28802;38.578;-0.066;2023-03-14T04:10:26;17.40;99.90
43183;DHT22;28802;38.578;-0.066;2023-03-14T04:13:18;17.30;99.90
43183;DHT22;28802;38.578;-0.066;2023-03-14T04:15:49;17.30;99.90
43183;DHT22;28802;38.578;-0.066;2023-03-14T04:18:21;17.20;99.90
43183;DHT22;28802;38.578;-0.066;2023-03-14T04:20:52;17.10;99.90
43183;DHT22;28802;38.578;-0.066;2023-03-14T04:23:21;17.10;99.90
43183;DHT22;28802;38.578;-0.066;2023-03-14T04:25:53;17.00;99.90
43183;DHT22;28802;38.578;-0.066;2023-03-14T04:28:20;17.00;99.90
43183;DHT22;28802;38.578;-0.066;2023-03-14T04:30:47;16.90;99.90
43183;DHT22;28802;38.578;-0.066;2023-03-14T04:33:18;17.00;99.90
43183;DHT22;28802;38.578;-0.066;2023-03-14T04:35:53;17.00;99.90
43183;DHT22;28802;38.578;-0.066;2023-03-14T04:38:20;16.90;99.90
43183;DHT22;28802;38.578;-0.066;2023-03-14T04:40:46;16.80;99.90
43183;DHT22;28802;38.578;-0.066;2023-03-14T04:43:14;16.80;99.90
43183;DHT22;28802;38.578;-0.066;2023-03-14T04:45:47;16.80;99.90
43183;DHT22;28802;38.578;-0.066;2023-03-14T04:48:13;16.80;99.90
43183;DHT22;28802;38.578;-0.066;2023-03-14T04:50:40;16.80;99.90
43183;DHT22;28802;38.578;-0.066;2023-03-14T04:53:06;16.80;99.90
43183;DHT22;28802;38.578;-0.066;2023-03-14T04:55:33;16.80;99.90
43183;DHT22;28802;38.578;-0.066;2023-03-14T04:58:00;16.70;99.90
43183;DHT22;28802;38.578;-0.066;2023-03-14T05:00:26;16.80;99.90
43183;DHT22;28802;38.578;-0.066;2023-03-14T05:03:03;16.70;99.90
43183;DHT22;28802;38.578;-0.066;2023-03-14T05:05:49;16.70;99.90
43183;DHT22;28802;38.578;-0.066;2023-03-14T05:08:31;16.70;99.90
43183;DHT22;28802;38.578;-0.066;2023-03-14T05:11:17;16.70;99.90
43183;DHT22;28802;38.578;-0.066;2023-03-14T05:14:09;16.70;99.90
43183;DHT22;28802;38.578;-0.066;2023-03-14T05:16:54;16.70;99.90
43183;DHT22;28802;38.578;-0.066;2023-03-14T05:19:46;16.60;99.90
43183;DHT22;28802;38.578;-0.066;2023-03-14T05:22:32;16.50;99.90
43183;DHT22;28802;38.578;-0.066;2023-03-14T05:25:11;16.40;99.90
43183;DHT22;28802;38.578;-0.066;2023-03-14T05:27:48;16.20;99.90
43183;DHT22;28802;38.578;-0.066;2023-03-14T05:30:33;16.20;99.90
43183;DHT22;28802;38.578;-0.066;2023-03-14T05:33:22;16.20;99.90
43183;DHT22;28802;38.578;-0.066;2023-03-14T05:36:07;16.30;99.90
43183;DHT22;28802;38.578;-0.066;2023-03-14T05:38:36;16.30;99.90
43183;DHT22;28802;38.578;-0.066;2023-03-14T05:41:28;16.30;99.90
43183;DHT22;28802;38.578;-0.066;2023-03-14T05:44:15;16.40;99.90
43183;DHT22;28802;38.578;-0.066;2023-03-14T05:46:59;16.40;99.90
43183;DHT22;28802;38.578;-0.066;2023-03-14T05:49:44;16.30;99.90
43183;DHT22;28802;38.578;-0.066;2023-03-14T05:52:10;16.30;99.90
43183;DHT22;28802;38.578;-0.066;2023-03-14T05:54:45;16.10;99.90
43183;DHT22;28802;38.578;-0.066;2023-03-14T05:57:39;16.10;99.90
43183;DHT22;28802;38.578;-0.066;2023-03-14T06:00:15;16.10;99.90
43183;DHT22;28802;38.578;-0.066;2023-03-14T06:02:57;16.10;99.90
43183;DHT22;28802;38.578;-0.066;2023-03-14T06:05:29;16.00;99.90
43183;DHT22;28802;38.578;-0.066;2023-03-14T06:08:00;16.00;99.90
43183;DHT22;28802;38.578;-0.066;2023-03-14T06:10:28;16.00;99.90
43183;DHT22;28802;38.578;-0.066;2023-03-14T06:12:54;15.90;99.90
43183;DHT22;28802;38.578;-0.066;2023-03-14T06:15:20;15.80;99.90
43183;DHT22;28802;38.578;-0.066;2023-03-14T06:17:49;15.70;99.90
43183;DHT22;28802;38.578;-0.066;2023-03-14T06:20:16;15.60;99.90
43183;DHT22;28802;38.578;-0.066;2023-03-14T06:22:42;15.70;99.90
43183;DHT22;28802;38.578;-0.066;2023-03-14T06:25:09;15.80;99.90
43183;DHT22;28802;38.578;-0.066;2023-03-14T06:27:36;15.90;99.90
43183;DHT22;28802;38.578;-0.066;2023-03-14T06:30:02;16.10;99.90
43183;DHT22;28802;38.578;-0.066;2023-03-14T06:32:30;16.40;99.90
43183;DHT22;28802;38.578;-0.066;2023-03-14T06:35:00;16.70;99.90
43183;DHT22;28802;38.578;-0.066;2023-03-14T06:37:28;16.80;99.90
43183;DHT22;28802;38.578;-0.066;2023-03-14T06:39:55;17.00;99.90
43183;DHT22;28802;38.578;-0.066;2023-03-14T06:42:39;17.00;99.90
43183;DHT22;28802;38.578;-0.066;2023-03-14T06:45:06;17.00;99.90
43183;DHT22;28802;38.578;-0.066;2023-03-14T06:47:32;16.90;99.90
43183;DHT22;28802;38.578;-0.066;2023-03-14T06:49:58;16.90;99.90
43183;DHT22;28802;38.578;-0.066;2023-03-14T06:52:24;16.90;99.90
43183;DHT22;28802;38.578;-0.066;2023-03-14T06:54:50;17.20;99.90
43183;DHT22;28802;38.578;-0.066;2023-03-14T06:57:20;17.30;99.90
43183;DHT22;28802;38.578;-0.066;2023-03-14T06:59:46;17.60;99.90
43183;DHT22;28802;38.578;-0.066;2023-03-14T07:02:13;17.80;99.90
43183;DHT22;28802;38.578;-0.066;2023-03-14T07:04:40;18.10;99.90
43183;DHT22;28802;38.578;-0.066;2023-03-14T07:07:07;18.30;99.90
43183;DHT22;28802;38.578;-0.066;2023-03-14T07:09:35;18.90;99.90
43183;DHT22;28802;38.578;-0.066;2023-03-14T07:12:02;19.40;99.90
43183;DHT22;28802;38.578;-0.066;2023-03-14T07:14:29;19.70;99.90
43183;DHT22;28802;38.578;-0.066;2023-03-14T07:16:54;19.70;99.90
43183;DHT22;28802;38.578;-0.066;2023-03-14T07:19:20;19.50;99.90
43183;DHT22;28802;38.578;-0.066;2023-03-14T07:21:46;19.70;99.90
43183;DHT22;28802;38.578;-0.066;2023-03-14T07:24:14;19.40;99.90
43183;DHT22;28802;38.578;-0.066;2023-03-14T07:26:40;19.70;99.90
43183;DHT22;28802;38.578;-0.066;2023-03-14T07:29:07;19.70;99.90
43183;DHT22;28802;38.578;-0.066;2023-03-14T07:31:33;19.90;99.90
43183;DHT22;28802;38.578;-0.066;2023-03-14T07:33:59;19.90;99.90
43183;DHT22;28802;38.578;-0.066;2023-03-14T07:36:30;20.00;99.90
43183;DHT22;28802;38.578;-0.066;2023-03-14T07:38:56;20.10;99.90
43183;DHT22;28802;38.578;-0.066;2023-03-14T07:41:22;20.30;99.90
43183;DHT22;28802;38.578;-0.066;2023-03-14T07:44:23;20.30;99.90
43183;DHT22;28802;38.578;-0.066;2023-03-14T07:46:49;21.00;99.90
43183;DHT22;28802;38.578;-0.066;2023-03-14T07:49:15;20.90;99.90
43183;DHT22;28802;38.578;-0.066;2023-03-14T07:51:41;21.50;99.90
43183;DHT22;28802;38.578;-0.066;2023-03-14T07:54:10;21.50;99.90
43183;DHT22;28802;38.578;-0.066;2023-03-14T07:56:36;20.50;99.90
43183;DHT22;28802;38.578;-0.066;2023-03-14T07:59:02;21.00;99.90
43183;DHT22;28802;38.578;-0.066;2023-03-14T08:01:29;21.70;99.90
43183;DHT22;28802;38.578;-0.066;2023-03-14T08:03:55;23.10;99.90
43183;DHT22;28802;38.578;-0.066;2023-03-14T08:06:21;24.10;99.90
43183;DHT22;28802;38.578;-0.066;2023-03-14T08:08:52;23.60;99.90
43183;DHT22;28802;38.578;-0.066;2023-03-14T08:11:21;23.30;99.90
43183;DHT22;28802;38.578;-0.066;2023-03-14T08:13:47;23.20;99.90
43183;DHT22;28802;38.578;-0.066;2023-03-14T08:16:18;23.10;99.90
43183;DHT22;28802;38.578;-0.066;2023-03-14T08:18:45;23.30;99.90
43183;DHT22;28802;38.578;-0.066;2023-03-14T08:21:11;23.30;99.90
43183;DHT22;28802;38.578;-0.066;2023-03-14T08:23:40;22.10;98.00
43183;DHT22;28802;38.578;-0.066;2023-03-14T08:26:07;22.80;99.00
43183;DHT22;28802;38.578;-0.066;2023-03-14T08:28:33;23.40;97.60
43183;DHT22;28802;38.578;-0.066;2023-03-14T08:31:08;23.60;94.80
43183;DHT22;28802;38.578;-0.066;2023-03-14T08:33:34;24.10;94.70
43183;DHT22;28802;38.578;-0.066;2023-03-14T08:36:00;23.00;99.90
43183;DHT22;28802;38.578;-0.066;2023-03-14T08:38:30;21.90;99.90
43183;DHT22;28802;38.578;-0.066;2023-03-14T08:40:58;22.10;99.90
43183;DHT22;28802;38.578;-0.066;2023-03-14T08:43:29;21.90;99.90
43183;DHT22;28802;38.578;-0.066;2023-03-14T08:45:59;21.40;99.90
43183;DHT22;28802;38.578;-0.066;2023-03-14T08:48:25;21.50;99.90
43183;DHT22;28802;38.578;-0.066;2023-03-14T08:50:52;22.10;99.90
43183;DHT22;28802;38.578;-0.066;2023-03-14T08:53:18;23.40;99.90
43183;DHT22;28802;38.578;-0.066;2023-03-14T08:55:51;24.80;99.90
43183;DHT22;28802;38.578;-0.066;2023-03-14T08:58:34;23.80;99.90
43183;DHT22;28802;38.578;-0.066;2023-03-14T09:01:20;24.50;99.90
43183;DHT22;28802;38.578;-0.066;2023-03-14T09:03:50;25.40;99.90
43183;DHT22;28802;38.578;-0.066;2023-03-14T09:06:17;26.60;96.50
43183;DHT22;28802;38.578;-0.066;2023-03-14T09:08:44;26.00;94.20
43183;DHT22;28802;38.578;-0.066;2023-03-14T09:11:13;24.90;96.40
43183;DHT22;28802;38.578;-0.066;2023-03-14T09:13:41;25.50;95.80
43183;DHT22;28802;38.578;-0.066;2023-03-14T09:16:07;25.80;95.20
43183;DHT22;28802;38.578;-0.066;2023-03-14T09:18:33;25.40;97.60
43183;DHT22;28802;38.578;-0.066;2023-03-14T09:20:59;25.00;94.90
43183;DHT22;28802;38.578;-0.066;2023-03-14T09:23:25;25.70;92.50
43183;DHT22;28802;38.578;-0.066;2023-03-14T09:25:56;26.50;92.60
43183;DHT22;28802;38.578;-0.066;2023-03-14T09:28:28;24.70;95.30
43183;DHT22;28802;38.578;-0.066;2023-03-14T09:31:01;24.60;95.20
43183;DHT22;28802;38.578;-0.066;2023-03-14T09:33:30;25.40;94.10
43183;DHT22;28802;38.578;-0.066;2023-03-14T09:35:58;25.30;91.70
43183;DHT22;28802;38.578;-0.066;2023-03-14T09:38:28;25.40;93.10
43183;DHT22;28802;38.578;-0.066;2023-03-14T09:40:55;25.50;90.70
43183;DHT22;28802;38.578;-0.066;2023-03-14T09:43:24;25.90;91.60
43183;DHT22;28802;38.578;-0.066;2023-03-14T09:45:55;26.30;86.10
43183;DHT22;28802;38.578;-0.066;2023-03-14T09:48:27;26.50;87.80
43183;DHT22;28802;38.578;-0.066;2023-03-14T09:50:57;26.50;87.70
43183;DHT22;28802;38.578;-0.066;2023-03-14T09:53:27;26.30;89.40
43183;DHT22;28802;38.578;-0.066;2023-03-14T09:55:54;26.30;90.80
43183;DHT22;28802;38.578;-0.066;2023-03-14T09:58:24;26.50;89.00
43183;DHT22;28802;38.578;-0.066;2023-03-14T10:00:52;26.00;85.20
43183;DHT22;28802;38.578;-0.066;2023-03-14T10:03:25;25.60;89.40
43183;DHT22;28802;38.578;-0.066;2023-03-14T10:05:52;25.90;88.30
43183;DHT22;28802;38.578;-0.066;2023-03-14T10:08:19;26.20;89.50
43183;DHT22;28802;38.578;-0.066;2023-03-14T10:10:45;25.90;87.90
43183;DHT22;28802;38.578;-0.066;2023-03-14T10:15:40;24.80;94.10
43183;DHT22;28802;38.578;-0.066;2023-03-14T10:18:14;25.60;86.60
43183;DHT22;28802;38.578;-0.066;2023-03-14T10:20:43;26.10;89.20
43183;DHT22;28802;38.578;-0.066;2023-03-14T10:25:44;26.70;80.90
43183;DHT22;28802;38.578;-0.066;2023-03-14T10:28:44;25.10;79.90
43183;DHT22;28802;38.578;-0.066;2023-03-14T10:31:11;25.00;83.10
43183;DHT22;28802;38.578;-0.066;2023-03-14T10:33:38;24.00;83.60
43183;DHT22;28802;38.578;-0.066;2023-03-14T10:38:41;25.20;81.30
43183;DHT22;28802;38.578;-0.066;2023-03-14T10:41:40;24.60;80.90
43183;DHT22;28802;38.578;-0.066;2023-03-14T10:44:08;24.30;78.50
43183;DHT22;28802;38.578;-0.066;2023-03-14T10:46:35;24.40;83.50
43183;DHT22;28802;38.578;-0.066;2023-03-14T10:49:27;25.80;85.10
43183;DHT22;28802;38.578;-0.066;2023-03-14T10:51:54;26.50;82.20
43183;DHT22;28802;38.578;-0.066;2023-03-14T10:54:21;26.80;82.80
43183;DHT22;28802;38.578;-0.066;2023-03-14T10:57:00;26.00;76.10
43183;DHT22;28802;38.578;-0.066;2023-03-14T10:59:34;26.20;73.70
43183;DHT22;28802;38.578;-0.066;2023-03-14T11:07:41;24.40;73.00
43183;DHT22;28802;38.578;-0.066;2023-03-14T11:15:59;23.80;69.80
43183;DHT22;28802;38.578;-0.066;2023-03-14T11:18:44;23.30;70.10
43183;DHT22;28802;38.578;-0.066;2023-03-14T11:21:20;25.00;77.80
43183;DHT22;28802;38.578;-0.066;2023-03-14T11:24:00;26.90;62.60
43183;DHT22;28802;38.578;-0.066;2023-03-14T11:26:45;26.40;63.10
43183;DHT22;28802;38.578;-0.066;2023-03-14T11:31:55;27.00;61.90
43183;DHT22;28802;38.578;-0.066;2023-03-14T11:34:41;27.50;65.00
43183;DHT22;28802;38.578;-0.066;2023-03-14T11:37:17;27.70;67.20
43183;DHT22;28802;38.578;-0.066;2023-03-14T11:39:56;28.40;60.50
43183;DHT22;28802;38.578;-0.066;2023-03-14T11:42:26;27.30;56.80
43183;DHT22;28802;38.578;-0.066;2023-03-14T11:44:54;24.10;85.60
43183;DHT22;28802;38.578;-0.066;2023-03-14T11:47:31;22.60;93.50
43183;DHT22;28802;38.578;-0.066;2023-03-14T11:50:08;22.60;92.80
43183;DHT22;28802;38.578;-0.066;2023-03-14T11:55:27;22.60;99.90
43183;DHT22;28802;38.578;-0.066;2023-03-14T11:58:00;21.90;99.90
43183;DHT22;28802;38.578;-0.066;2023-03-14T12:00:27;23.10;99.90
43183;DHT22;28802;38.578;-0.066;2023-03-14T12:03:12;22.60;94.80
43183;DHT22;28802;38.578;-0.066;2023-03-14T12:10:40;22.00;99.90
43183;DHT22;28802;38.578;-0.066;2023-03-14T12:13:10;22.30;99.90
43183;DHT22;28802;38.578;-0.066;2023-03-14T12:15:40;22.30;99.90
43183;DHT22;28802;38.578;-0.066;2023-03-14T12:18:35;21.60;99.90
43183;DHT22;28802;38.578;-0.066;2023-03-14T12:21:08;21.20;99.90
43183;DHT22;28802;38.578;-0.066;2023-03-14T12:23:42;20.70;99.90
43183;DHT22;28802;38.578;-0.066;2023-03-14T12:28:39;21.60;99.90
43183;DHT22;28802;38.578;-0.066;2023-03-14T12:31:41;21.70;99.90
43183;DHT22;28802;38.578;-0.066;2023-03-14T12:50:08;20.80;99.90
43183;DHT22;28802;38.578;-0.066;2023-03-14T12:53:05;20.40;99.90
43183;DHT22;28802;38.578;-0.066;2023-03-14T12:55:52;20.50;99.90
43183;DHT22;28802;38.578;-0.066;2023-03-14T13:01:04;20.30;99.90
43183;DHT22;28802;38.578;-0.066;2023-03-14T13:03:54;20.30;99.90
43183;DHT22;28802;38.578;-0.066;2023-03-14T13:12:23;20.00;99.90
43183;DHT22;28802;38.578;-0.066;2023-03-14T13:14:53;19.40;99.90
43183;DHT22;28802;38.578;-0.066;2023-03-14T13:17:26;19.50;99.90
43183;DHT22;28802;38.578;-0.066;2023-03-14T13:19:56;19.80;99.90
43183;DHT22;28802;38.578;-0.066;2023-03-14T13:22:28;19.90;99.90
43183;DHT22;28802;38.578;-0.066;2023-03-14T13:25:09;19.70;99.90
43183;DHT22;28802;38.578;-0.066;2023-03-14T13:27:35;19.30;99.90
43183;DHT22;28802;38.578;-0.066;2023-03-14T13:30:18;18.90;99.90
43183;DHT22;28802;38.578;-0.066;2023-03-14T13:32:46;18.50;99.90
43183;DHT22;28802;38.578;-0.066;2023-03-14T13:35:19;18.60;99.90
43183;DHT22;28802;38.578;-0.066;2023-03-14T13:37:45;18.20;99.90
43183;DHT22;28802;38.578;-0.066;2023-03-14T13:40:25;18.10;99.90
43183;DHT22;28802;38.578;-0.066;2023-03-14T13:43:04;18.10;99.90
43183;DHT22;28802;38.578;-0.066;2023-03-14T13:45:31;18.20;99.90
43183;DHT22;28802;38.578;-0.066;2023-03-14T13:47:57;18.20;99.90
43183;DHT22;28802;38.578;-0.066;2023-03-14T13:50:23;17.90;99.90
43183;DHT22;28802;38.578;-0.066;2023-03-14T13:52:55;18.00;99.90
43183;DHT22;28802;38.578;-0.066;2023-03-14T13:55:21;18.00;99.90
43183;DHT22;28802;38.578;-0.066;2023-03-14T13:57:48;18.10;99.90
43183;DHT22;28802;38.578;-0.066;2023-03-14T14:00:20;18.30;99.90
43183;DHT22;28802;38.578;-0.066;2023-03-14T14:02:47;18.30;99.90
43183;DHT22;28802;38.578;-0.066;2023-03-14T14:05:14;18.30;99.90
43183;DHT22;28802;38.578;-0.066;2023-03-14T14:07:43;18.40;99.90
43183;DHT22;28802;38.578;-0.066;2023-03-14T14:10:12;18.40;99.90
43183;DHT22;28802;38.578;-0.066;2023-03-14T14:12:51;18.40;99.90
43183;DHT22;28802;38.578;-0.066;2023-03-14T14:15:20;18.40;99.90
43183;DHT22;28802;38.578;-0.066;2023-03-14T14:17:54;18.10;99.90
43183;DHT22;28802;38.578;-0.066;2023-03-14T14:22:58;18.20;99.90
43183;DHT22;28802;38.578;-0.066;2023-03-14T14:25:25;18.10;99.90
43183;DHT22;28802;38.578;-0.066;2023-03-14T14:27:51;18.50;99.90
43183;DHT22;28802;38.578;-0.066;2023-03-14T14:32:44;18.30;99.90
43183;DHT22;28802;38.578;-0.066;2023-03-14T14:35:25;18.40;99.90
43183;DHT22;28802;38.578;-0.066;2023-03-14T14:37:51;18.70;99.90
43183;DHT22;28802;38.578;-0.066;2023-03-14T14:40:27;18.90;99.90
43183;DHT22;28802;38.578;-0.066;2023-03-14T14:42:54;18.80;99.90
43183;DHT22;28802;38.578;-0.066;2023-03-14T14:45:23;19.00;99.90
43183;DHT22;28802;38.578;-0.066;2023-03-14T14:53:39;18.60;99.90
43183;DHT22;28802;38.578;-0.066;2023-03-14T14:56:28;18.50;99.90
43183;DHT22;28802;38.578;-0.066;2023-03-14T14:58:59;18.50;99.90
43183;DHT22;28802;38.578;-0.066;2023-03-14T15:01:38;18.30;99.90
43183;DHT22;28802;38.578;-0.066;2023-03-14T15:04:13;18.30;99.90
43183;DHT22;28802;38.578;-0.066;2023-03-14T15:06:44;18.30;99.90
43183;DHT22;28802;38.578;-0.066;2023-03-14T15:09:14;18.20;99.90
43183;DHT22;28802;38.578;-0.066;2023-03-14T15:11:42;18.20;99.90
43183;DHT22;28802;38.578;-0.066;2023-03-14T15:14:08;18.10;99.90
43183;DHT22;28802;38.578;-0.066;2023-03-14T15:16:34;18.10;99.90
43183;DHT22;28802;38.578;-0.066;2023-03-14T15:19:03;18.20;99.90
43183;DHT22;28802;38.578;-0.066;2023-03-14T15:21:31;18.20;99.90
43183;DHT22;28802;38.578;-0.066;2023-03-14T15:23:57;18.20;99.90
43183;DHT22;28802;38.578;-0.066;2023-03-14T15:26:25;18.20;99.90
43183;DHT22;28802;38.578;-0.066;2023-03-14T15:28:52;18.40;99.90
43183;DHT22;28802;38.578;-0.066;2023-03-14T15:31:19;18.10;99.90
43183;DHT22;28802;38.578;-0.066;2023-03-14T15:33:47;18.10;99.90
43183;DHT22;28802;38.578;-0.066;2023-03-14T15:36:29;17.90;99.90
43183;DHT22;28802;38.578;-0.066;2023-03-14T15:38:59;17.80;99.90
43183;DHT22;28802;38.578;-0.066;2023-03-14T15:41:27;17.60;99.90
43183;DHT22;28802;38.578;-0.066;2023-03-14T15:43:53;17.60;99.90
43183;DHT22;28802;38.578;-0.066;2023-03-14T15:46:20;17.60;99.90
43183;DHT22;28802;38.578;-0.066;2023-03-14T15:48:49;17.40;99.90
43183;DHT22;28802;38.578;-0.066;2023-03-14T15:51:18;17.40;99.90
43183;DHT22;28802;38.578;-0.066;2023-03-14T15:53:44;17.30;99.90
43183;DHT22;28802;38.578;-0.066;2023-03-14T15:56:16;17.10;99.90
43183;DHT22;28802;38.578;-0.066;2023-03-14T15:58:43;17.00;99.90
43183;DHT22;28802;38.578;-0.066;2023-03-14T16:01:13;16.90;99.90
43183;DHT22;28802;38.578;-0.066;2023-03-14T16:03:47;16.70;99.90
43183;DHT22;28802;38.578;-0.066;2023-03-14T16:06:14;16.90;99.90
43183;DHT22;28802;38.578;-0.066;2023-03-14T16:08:41;16.80;99.90
43183;DHT22;28802;38.578;-0.066;2023-03-14T16:11:12;16.80;99.90
43183;DHT22;28802;38.578;-0.066;2023-03-14T16:13:38;16.90;99.90
43183;DHT22;28802;38.578;-0.066;2023-03-14T16:16:05;16.90;99.90
43183;DHT22;28802;38.578;-0.066;2023-03-14T16:18:33;16.90;99.90
43183;DHT22;28802;38.578;-0.066;2023-03-14T16:21:06;17.00;99.90
43183;DHT22;28802;38.578;-0.066;2023-03-14T16:23:33;17.00;99.90
43183;DHT22;28802;38.578;-0.066;2023-03-14T16:26:15;16.80;99.90
43183;DHT22;28802;38.578;-0.066;2023-03-14T16:28:43;16.90;99.90
43183;DHT22;28802;38.578;-0.066;2023-03-14T16:31:11;16.90;99.90
43183;DHT22;28802;38.578;-0.066;2023-03-14T16:33:41;17.00;99.90
43183;DHT22;28802;38.578;-0.066;2023-03-14T16:36:10;17.00;99.90
43183;DHT22;28802;38.578;-0.066;2023-03-14T16:38:39;16.90;99.90
43183;DHT22;28802;38.578;-0.066;2023-03-14T16:43:39;17.00;99.90
43183;DHT22;28802;38.578;-0.066;2023-03-14T16:46:07;17.00;99.90
43183;DHT22;28802;38.578;-0.066;2023-03-14T16:48:34;16.90;99.90
43183;DHT22;28802;38.578;-0.066;2023-03-14T16:51:00;16.80;99.90
43183;DHT22;28802;38.578;-0.066;2023-03-14T16:53:26;16.90;99.90